createdAt,value
2022-12-29T00:01:41.794Z,92.66
2022-12-29T00:04:15.023Z,92.76
2022-12-29T00:06:43.211Z,90.22
2022-12-29T00:09:14.518Z,91.97
2022-12-29T00:11:41.770Z,91.75
2022-12-29T00:14:29.016Z,90.09
2022-12-29T00:16:55.714Z,91.98
2022-12-29T00:19:43.340Z,93.04
2022-12-29T00:22:33.318Z,91.25
2022-12-29T00:25:19.422Z,92.70
2022-12-29T00:28:07.560Z,89.72
2022-12-29T00:30:53.621Z,89.47
2022-12-29T00:33:40.387Z,88.38
2022-12-29T00:36:34.371Z,91.64
2022-12-29T00:39:26.647Z,90.98
2022-12-29T00:42:13.704Z,92.17
2022-12-29T00:44:40.202Z,91.60
2022-12-29T00:47:06.743Z,91.59
2022-12-29T00:49:34.103Z,91.01
2022-12-29T00:52:06.566Z,90.43
2022-12-29T00:54:36.032Z,90.22
2022-12-29T00:57:03.321Z,90.17
2022-12-29T00:59:29.956Z,92.44
2022-12-29T01:01:56.864Z,89.66
2022-12-29T01:04:26.661Z,90.88
2022-12-29T01:06:53.447Z,90.45
2022-12-29T01:09:39.211Z,90.15
2022-12-29T01:12:08.310Z,90.95
2022-12-29T01:14:36.643Z,90.34
2022-12-29T01:17:04.927Z,89.64
2022-12-29T01:19:31.742Z,90.70
2022-12-29T01:21:58.360Z,90.07
2022-12-29T01:24:26.394Z,89.40
2022-12-29T01:26:53.175Z,90.92
2022-12-29T01:29:19.744Z,91.43
2022-12-29T01:31:46.938Z,90.38
2022-12-29T01:34:14.181Z,89.13
2022-12-29T01:36:40.743Z,91.30
2022-12-29T01:39:07.227Z,91.34
2022-12-29T01:41:34.145Z,90.44
2022-12-29T01:44:02.676Z,91.30
2022-12-29T01:46:35.427Z,88.98
2022-12-29T01:49:20.986Z,90.10
2022-12-29T01:51:55.110Z,89.45
2022-12-29T01:54:26.082Z,89.29
2022-12-29T01:56:54.556Z,88.05
2022-12-29T01:59:23.859Z,90.27
2022-12-29T02:01:51.007Z,88.40
2022-12-29T02:04:17.895Z,90.57
2022-12-29T02:06:52.990Z,87.90
2022-12-29T02:09:19.740Z,89.35
2022-12-29T02:11:47.103Z,89.37
2022-12-29T02:14:14.618Z,90.08
2022-12-29T02:16:41.070Z,90.80
2022-12-29T02:19:45.342Z,90.10
2022-12-29T02:22:21.035Z,88.62
2022-12-29T02:24:56.115Z,89.28
2022-12-29T02:27:44.401Z,90.85
2022-12-29T02:30:18.505Z,90.26
2022-12-29T02:32:47.898Z,89.84
2022-12-29T02:35:38.385Z,89.28
2022-12-29T02:38:30.966Z,90.41
2022-12-29T02:41:04.276Z,88.93
2022-12-29T02:43:50.970Z,89.79
2022-12-29T02:46:30.188Z,91.77
2022-12-29T02:49:20.073Z,91.14
2022-12-29T02:51:56.737Z,90.18
2022-12-29T02:54:41.980Z,90.16
2022-12-29T02:57:14.540Z,90.07
2022-12-29T02:59:42.686Z,89.54
2022-12-29T03:02:21.495Z,90.94
2022-12-29T03:05:03.269Z,89.75
2022-12-29T03:07:56.817Z,90.48
2022-12-29T03:10:55.438Z,88.89
2022-12-29T03:14:05.008Z,89.58
2022-12-29T03:16:43.863Z,88.73
2022-12-29T03:19:13.048Z,88.49
2022-12-29T03:22:28.036Z,88.89
2022-12-29T03:25:01.746Z,90.27
2022-12-29T03:27:35.932Z,91.83
2022-12-29T03:30:04.265Z,90.57
2022-12-29T03:32:37.911Z,90.03
2022-12-29T03:35:05.808Z,90.79
2022-12-29T03:37:37.018Z,89.75
2022-12-29T03:40:05.125Z,92.05
2022-12-29T03:42:33.898Z,91.07
2022-12-29T03:45:01.414Z,90.30
2022-12-29T03:47:28.009Z,91.56
2022-12-29T03:49:54.517Z,90.71
2022-12-29T03:52:20.979Z,89.75
2022-12-29T03:54:48.048Z,88.95
2022-12-29T03:57:14.535Z,88.35
2022-12-29T03:59:41.018Z,89.24
2022-12-29T04:02:07.686Z,88.37
2022-12-29T04:04:34.225Z,88.79
2022-12-29T04:07:00.712Z,89.71
2022-12-29T04:09:27.156Z,89.84
2022-12-29T04:11:53.641Z,88.88
2022-12-29T04:14:20.098Z,89.62
2022-12-29T04:16:46.554Z,87.40
2022-12-29T04:19:12.994Z,87.20
2022-12-29T04:21:39.498Z,89.11
2022-12-29T04:24:07.720Z,88.25
2022-12-29T04:26:34.313Z,88.68
2022-12-29T04:29:00.762Z,86.35
2022-12-29T04:31:27.301Z,86.62
2022-12-29T04:33:53.798Z,86.77
2022-12-29T04:36:21.699Z,87.41
2022-12-29T04:38:49.774Z,88.83
2022-12-29T04:41:16.258Z,87.03
2022-12-29T04:43:43.554Z,87.92
2022-12-29T04:46:10.067Z,87.05
2022-12-29T04:48:36.595Z,85.94
2022-12-29T04:51:03.138Z,84.91
2022-12-29T04:53:29.637Z,87.31
2022-12-29T04:55:56.174Z,86.42
2022-12-29T04:58:23.522Z,88.31
2022-12-29T05:00:51.344Z,87.19
2022-12-29T05:03:17.945Z,87.13
2022-12-29T05:05:45.128Z,88.22
2022-12-29T05:08:11.757Z,86.95
2022-12-29T05:10:38.330Z,87.07
2022-12-29T05:13:04.772Z,86.38
2022-12-29T05:15:31.301Z,88.03
2022-12-29T05:17:57.832Z,87.71
2022-12-29T05:20:24.336Z,88.18
2022-12-29T05:22:50.809Z,90.36
2022-12-29T05:25:17.383Z,90.36
2022-12-29T05:27:43.880Z,90.94
2022-12-29T05:30:10.942Z,89.02
2022-12-29T05:32:37.439Z,90.12
2022-12-29T05:35:04.230Z,89.25
2022-12-29T05:37:30.691Z,91.45
2022-12-29T05:39:57.168Z,90.49
2022-12-29T05:42:23.657Z,89.74
2022-12-29T05:44:53.081Z,89.76
2022-12-29T05:47:19.570Z,87.59
2022-12-29T05:49:46.064Z,90.40
2022-12-29T05:52:12.546Z,91.55
2022-12-29T05:54:39.025Z,91.50
2022-12-29T05:57:05.480Z,89.76
2022-12-29T05:59:31.909Z,91.26
2022-12-29T06:01:58.528Z,90.99
2022-12-29T06:04:25.085Z,92.80
2022-12-29T06:06:51.670Z,90.32
2022-12-29T06:09:18.109Z,91.17
2022-12-29T06:11:44.580Z,89.27
2022-12-29T06:14:11.188Z,89.60
2022-12-29T06:16:37.677Z,89.04
2022-12-29T06:19:04.324Z,87.32
2022-12-29T06:21:30.844Z,88.78
2022-12-29T06:23:57.309Z,88.84
2022-12-29T06:26:24.046Z,90.00
2022-12-29T06:28:50.498Z,87.54
2022-12-29T06:31:17.076Z,89.94
2022-12-29T06:33:47.151Z,88.98
2022-12-29T06:36:16.085Z,89.39
2022-12-29T06:38:43.970Z,89.56
2022-12-29T06:41:10.568Z,89.75
2022-12-29T06:43:39.206Z,90.20
2022-12-29T06:46:06.180Z,88.65
2022-12-29T06:48:32.756Z,88.74
2022-12-29T06:50:59.257Z,87.47
2022-12-29T06:53:25.793Z,89.22
2022-12-29T06:55:52.246Z,89.44
2022-12-29T06:58:19.230Z,89.65
2022-12-29T07:00:45.821Z,88.84
2022-12-29T07:03:12.370Z,89.78
2022-12-29T07:05:38.890Z,88.12
2022-12-29T07:08:05.970Z,86.89
2022-12-29T07:10:32.695Z,87.94
2022-12-29T07:12:59.231Z,86.30
2022-12-29T07:15:25.709Z,86.13
2022-12-29T07:17:52.277Z,85.46
2022-12-29T07:20:24.766Z,86.79
2022-12-29T07:22:52.944Z,86.20
2022-12-29T07:25:19.395Z,85.80
2022-12-29T07:27:45.947Z,84.30
2022-12-29T07:30:12.936Z,85.27
2022-12-29T07:32:39.381Z,83.92
2022-12-29T07:35:06.210Z,85.96
2022-12-29T07:37:32.736Z,84.53
2022-12-29T07:39:59.277Z,84.85
2022-12-29T07:42:25.767Z,83.07
2022-12-29T07:44:52.233Z,84.98
2022-12-29T07:47:18.743Z,84.13
2022-12-29T07:49:45.187Z,82.91
2022-12-29T07:52:11.662Z,84.69
2022-12-29T07:54:38.124Z,84.46
2022-12-29T07:57:05.373Z,85.26
2022-12-29T07:59:31.885Z,84.77
2022-12-29T08:01:58.490Z,85.26
2022-12-29T08:04:25.047Z,83.24
2022-12-29T08:06:51.624Z,82.80
2022-12-29T08:09:22.315Z,84.74
2022-12-29T08:11:50.602Z,82.25
2022-12-29T08:14:17.376Z,84.25
2022-12-29T08:16:43.828Z,83.28
2022-12-29T08:19:12.516Z,82.53
2022-12-29T08:21:39.659Z,82.55
2022-12-29T08:24:07.071Z,82.44
2022-12-29T08:26:33.859Z,81.83
2022-12-29T08:29:00.369Z,82.05
2022-12-29T08:31:26.854Z,82.38
2022-12-29T08:33:53.351Z,82.13
2022-12-29T08:36:19.842Z,81.92
2022-12-29T08:38:46.316Z,82.17
2022-12-29T08:41:12.802Z,83.36
2022-12-29T08:43:39.359Z,81.85
2022-12-29T08:46:05.997Z,80.24
2022-12-29T08:48:32.502Z,80.75
2022-12-29T08:50:58.999Z,80.39
2022-12-29T08:53:25.481Z,79.74
2022-12-29T08:56:04.745Z,79.83
2022-12-29T08:58:32.051Z,80.74
2022-12-29T09:00:59.006Z,79.90
2022-12-29T09:04:03.803Z,80.05
2022-12-29T09:06:12.501Z,79.66
2022-12-29T09:08:38.994Z,79.25
2022-12-29T09:11:17.551Z,80.61
2022-12-29T09:13:44.136Z,80.58
2022-12-29T09:16:11.013Z,79.87
2022-12-29T09:18:38.339Z,77.89
2022-12-29T09:21:06.148Z,79.50
2022-12-29T09:23:33.704Z,79.58
2022-12-29T09:26:00.403Z,79.22
2022-12-29T09:28:27.349Z,77.65
2022-12-29T09:30:53.848Z,76.79
2022-12-29T09:33:20.401Z,77.07
2022-12-29T09:35:52.882Z,78.19
2022-12-29T09:38:19.444Z,76.05
2022-12-29T09:40:50.885Z,76.23
2022-12-29T09:43:24.592Z,75.81
2022-12-29T09:46:04.465Z,75.97
2022-12-29T09:48:34.637Z,73.81
2022-12-29T09:51:04.495Z,76.91
2022-12-29T09:54:01.831Z,76.04
2022-12-29T09:56:28.845Z,78.90
2022-12-29T09:59:07.100Z,80.80
2022-12-29T10:01:38.469Z,81.70
2022-12-29T10:04:06.282Z,81.13
2022-12-29T10:07:27.935Z,80.72
2022-12-29T10:10:02.084Z,81.67
2022-12-29T10:12:52.226Z,81.09
2022-12-29T10:15:30.612Z,79.18
2022-12-29T10:18:00.126Z,78.91
2022-12-29T10:20:58.834Z,80.69
2022-12-29T10:23:42.212Z,78.09
2022-12-29T10:26:29.684Z,79.62
2022-12-29T10:29:00.472Z,80.20
2022-12-29T10:31:37.027Z,77.34
2022-12-29T10:34:11.158Z,76.53
2022-12-29T10:36:44.192Z,76.91
2022-12-29T10:39:29.911Z,77.17
2022-12-29T10:42:08.867Z,77.30
2022-12-29T10:44:35.746Z,76.80
2022-12-29T10:47:21.239Z,74.30
2022-12-29T10:49:48.780Z,74.94
2022-12-29T10:52:17.702Z,75.20
2022-12-29T10:54:55.190Z,75.23
2022-12-29T10:57:31.788Z,76.09
2022-12-29T10:59:58.661Z,74.50
2022-12-29T11:02:38.515Z,75.46
2022-12-29T11:05:23.989Z,74.82
2022-12-29T11:07:53.062Z,75.80
2022-12-29T11:10:25.629Z,75.36
2022-12-29T11:13:03.132Z,76.21
2022-12-29T11:15:49.479Z,77.54
2022-12-29T11:18:22.268Z,77.50
2022-12-29T11:21:02.278Z,76.40
2022-12-29T11:23:37.695Z,76.00
2022-12-29T11:26:23.903Z,76.19
2022-12-29T11:29:17.137Z,76.57
2022-12-29T11:31:55.219Z,76.72
2022-12-29T11:34:35.918Z,75.92
2022-12-29T11:37:07.850Z,76.28
2022-12-29T11:39:39.070Z,75.15
2022-12-29T11:43:03.621Z,76.49
2022-12-29T11:45:35.369Z,75.26
2022-12-29T11:48:22.161Z,76.37
2022-12-29T11:50:54.481Z,75.70
2022-12-29T11:53:41.014Z,76.33
2022-12-29T11:56:12.162Z,75.03
2022-12-29T11:58:39.533Z,75.33
2022-12-29T12:01:24.371Z,75.69
2022-12-29T12:04:09.407Z,75.58
2022-12-29T12:06:43.870Z,75.42
2022-12-29T12:09:24.404Z,76.39
2022-12-29T12:11:54.888Z,76.15
2022-12-29T12:14:25.554Z,74.76
2022-12-29T12:17:22.074Z,76.10
2022-12-29T12:20:19.539Z,75.89
2022-12-29T12:23:00.927Z,75.89
2022-12-29T12:25:32.949Z,74.03
2022-12-29T12:28:12.485Z,74.52
2022-12-29T12:30:56.490Z,74.48
2022-12-29T12:33:32.361Z,75.02
2022-12-29T12:36:28.427Z,74.14
2022-12-29T12:39:10.808Z,75.08
2022-12-29T12:41:55.645Z,76.75
2022-12-29T12:44:54.059Z,76.74
2022-12-29T12:47:45.037Z,76.86
2022-12-29T12:50:36.257Z,77.72
2022-12-29T12:53:19.615Z,77.78
2022-12-29T12:55:46.031Z,77.93
2022-12-29T12:58:23.797Z,78.58
2022-12-29T13:01:16.455Z,79.51
2022-12-29T13:03:55.313Z,80.17
2022-12-29T13:06:35.914Z,80.76
2022-12-29T13:09:31.070Z,79.34
2022-12-29T13:12:27.282Z,81.05
2022-12-29T13:15:04.924Z,81.44
2022-12-29T13:17:33.588Z,81.56
2022-12-29T13:20:13.431Z,80.94
2022-12-29T13:22:51.858Z,80.01
2022-12-29T13:25:29.368Z,81.36
2022-12-29T13:28:10.487Z,81.78
2022-12-29T13:31:12.198Z,81.12
2022-12-29T13:33:43.739Z,80.71
2022-12-29T13:37:01.011Z,81.82
2022-12-29T13:39:33.112Z,86.80
2022-12-29T13:42:00.233Z,85.67
2022-12-29T13:44:36.270Z,87.98
2022-12-29T13:47:33.031Z,87.11
2022-12-29T13:50:02.274Z,85.32
2022-12-29T13:52:47.328Z,85.76
2022-12-29T13:55:42.438Z,85.61
2022-12-29T13:58:24.153Z,86.58
2022-12-29T14:01:11.634Z,85.98
2022-12-29T14:03:51.348Z,85.16
2022-12-29T14:06:29.390Z,84.28
2022-12-29T14:08:59.469Z,83.40
2022-12-29T14:11:40.059Z,83.97
2022-12-29T14:14:24.651Z,84.77
2022-12-29T14:16:52.161Z,83.84
2022-12-29T14:19:27.123Z,84.55
2022-12-29T14:21:56.942Z,84.17
2022-12-29T14:24:41.169Z,83.89
2022-12-29T14:27:10.690Z,83.33
2022-12-29T14:29:40.202Z,85.01
2022-12-29T14:32:21.654Z,84.17
2022-12-29T14:34:52.422Z,83.65
2022-12-29T14:37:31.552Z,83.83
2022-12-29T14:40:18.829Z,84.27
2022-12-29T14:42:46.823Z,83.46
2022-12-29T14:45:16.454Z,81.79
2022-12-29T14:47:45.277Z,81.33
2022-12-29T14:50:11.716Z,82.21
2022-12-29T14:53:03.645Z,82.44
2022-12-29T14:55:55.427Z,82.27
2022-12-29T14:58:27.476Z,83.34
2022-12-29T15:00:54.148Z,82.97
2022-12-29T15:03:20.732Z,82.15
2022-12-29T15:05:50.646Z,80.23
2022-12-29T15:08:33.080Z,82.13
2022-12-29T15:11:02.261Z,81.03
2022-12-29T15:13:40.428Z,79.50
2022-12-29T15:16:22.572Z,81.11
2022-12-29T15:18:49.077Z,82.27
2022-12-29T15:21:17.047Z,79.99
2022-12-29T15:23:45.287Z,79.78
2022-12-29T15:26:13.035Z,79.11
2022-12-29T15:28:44.632Z,79.44
2022-12-29T15:31:16.731Z,79.73
2022-12-29T15:33:48.296Z,79.00
2022-12-29T15:36:23.673Z,79.11
2022-12-29T15:38:50.888Z,79.99
2022-12-29T15:42:03.164Z,79.06
2022-12-29T15:44:33.767Z,79.57
2022-12-29T15:47:05.802Z,79.66
2022-12-29T15:49:33.116Z,78.14
2022-12-29T15:51:59.806Z,78.78
2022-12-29T15:54:28.373Z,79.54
2022-12-29T15:56:54.801Z,79.02
2022-12-29T15:59:29.322Z,78.47
2022-12-29T16:01:57.904Z,78.61
2022-12-29T16:04:27.277Z,78.16
2022-12-29T16:07:04.188Z,77.78
2022-12-29T16:09:44.510Z,80.06
2022-12-29T16:12:20.496Z,79.24
2022-12-29T16:15:05.760Z,79.67
2022-12-29T16:17:34.691Z,79.64
2022-12-29T16:20:04.856Z,79.07
2022-12-29T16:22:34.202Z,78.50
2022-12-29T16:25:05.826Z,77.63
2022-12-29T16:27:36.992Z,78.12
2022-12-29T16:30:18.561Z,78.76
2022-12-29T16:32:50.021Z,79.23
2022-12-29T16:35:31.140Z,77.74
2022-12-29T16:38:16.383Z,77.27
2022-12-29T16:41:05.697Z,78.47
2022-12-29T16:43:36.079Z,78.35
2022-12-29T16:46:02.554Z,78.56
2022-12-29T16:48:31.900Z,80.38
2022-12-29T16:51:06.562Z,80.02
2022-12-29T16:53:36.162Z,80.27
2022-12-29T16:56:09.171Z,79.61
2022-12-29T16:58:36.270Z,78.65
2022-12-29T17:01:06.693Z,78.63
2022-12-29T17:03:40.238Z,79.32
2022-12-29T17:06:07.237Z,79.39
2022-12-29T17:08:44.605Z,77.46
2022-12-29T17:11:51.207Z,78.22
2022-12-29T17:14:35.687Z,79.16
2022-12-29T17:17:04.260Z,80.54
2022-12-29T17:19:37.274Z,80.39
2022-12-29T17:22:04.442Z,79.30
2022-12-29T17:24:30.980Z,79.25
2022-12-29T17:26:59.776Z,78.85
2022-12-29T17:29:40.021Z,79.73
2022-12-29T17:32:10.962Z,79.69
2022-12-29T17:34:37.403Z,79.50
2022-12-29T17:37:04.256Z,78.50
2022-12-29T17:39:30.774Z,79.36
2022-12-29T17:41:57.262Z,80.27
2022-12-29T17:44:25.172Z,79.50
2022-12-29T17:46:51.741Z,80.67
2022-12-29T17:49:18.804Z,79.74
2022-12-29T17:51:46.607Z,78.95
2022-12-29T17:54:20.135Z,80.70
2022-12-29T17:56:46.804Z,80.19
2022-12-29T17:59:16.116Z,78.95
2022-12-29T18:01:45.785Z,80.38
2022-12-29T18:04:15.231Z,79.23
2022-12-29T18:06:42.802Z,80.85
2022-12-29T18:09:10.737Z,81.24
2022-12-29T18:11:42.787Z,81.12
2022-12-29T18:14:14.319Z,81.19
2022-12-29T18:16:41.462Z,81.44
2022-12-29T18:19:09.404Z,80.16
2022-12-29T18:21:37.392Z,79.87
2022-12-29T18:24:03.958Z,80.57
2022-12-29T18:26:35.701Z,79.50
2022-12-29T18:29:02.222Z,80.20
2022-12-29T18:31:31.556Z,80.32
2022-12-29T18:34:00.744Z,78.87
2022-12-29T18:36:27.731Z,79.62
2022-12-29T18:38:54.855Z,79.97
2022-12-29T18:41:23.969Z,79.34
2022-12-29T18:43:50.547Z,79.37
2022-12-29T18:46:22.706Z,78.68
2022-12-29T18:48:49.827Z,79.31
2022-12-29T18:51:18.733Z,79.47
2022-12-29T18:53:45.715Z,79.67
2022-12-29T18:56:12.446Z,79.58
2022-12-29T18:58:39.355Z,78.56
2022-12-29T19:01:06.699Z,78.38
2022-12-29T19:03:33.690Z,78.52
2022-12-29T19:06:00.836Z,77.77
2022-12-29T19:08:27.559Z,77.60
2022-12-29T19:10:54.819Z,76.95
2022-12-29T19:13:29.320Z,79.06
2022-12-29T19:15:57.170Z,78.88
2022-12-29T19:18:43.588Z,79.57
2022-12-29T19:21:11.603Z,79.52
2022-12-29T19:23:38.147Z,81.34
2022-12-29T19:26:04.689Z,79.55
2022-12-29T19:28:31.312Z,79.95
2022-12-29T19:31:00.013Z,79.08
2022-12-29T19:33:26.789Z,78.46
2022-12-29T19:35:53.347Z,78.21
2022-12-29T19:38:19.908Z,79.21
2022-12-29T19:40:49.069Z,78.41
2022-12-29T19:43:15.667Z,78.82
2022-12-29T19:45:43.832Z,79.17
2022-12-29T19:48:16.337Z,81.26
2022-12-29T19:50:43.854Z,80.50
2022-12-29T19:53:11.358Z,80.72
2022-12-29T19:55:41.316Z,80.77
2022-12-29T19:58:07.847Z,81.20
2022-12-29T20:00:34.381Z,81.70
2022-12-29T20:03:01.036Z,82.65
2022-12-29T20:05:27.612Z,82.37
2022-12-29T20:07:54.083Z,81.21
2022-12-29T20:10:20.529Z,83.39
2022-12-29T20:12:47.099Z,80.59
2022-12-29T20:15:15.169Z,80.45
2022-12-29T20:20:28.210Z,81.54
2022-12-29T20:22:54.743Z,80.09
2022-12-29T20:28:08.470Z,79.36
2022-12-29T20:30:34.993Z,79.46
2022-12-29T20:33:06.203Z,79.57
2022-12-29T20:35:34.766Z,78.34
2022-12-29T20:38:01.261Z,77.48
2022-12-29T20:40:29.154Z,78.32
2022-12-29T20:42:56.439Z,77.51
2022-12-29T20:45:24.524Z,77.68
2022-12-29T20:47:51.036Z,77.33
2022-12-29T20:50:17.493Z,79.22
2022-12-29T20:52:44.027Z,77.73
2022-12-29T20:55:10.623Z,78.49
2022-12-29T20:58:13.661Z,79.22
2022-12-29T21:00:23.805Z,78.89
2022-12-29T21:02:50.912Z,78.81
2022-12-29T21:05:25.610Z,79.25
2022-12-29T21:07:53.710Z,80.94
2022-12-29T21:10:20.974Z,80.80
2022-12-29T21:12:48.495Z,79.58
2022-12-29T21:15:15.591Z,81.03
2022-12-29T21:17:43.400Z,79.77
2022-12-29T21:20:20.153Z,78.90
2022-12-29T21:22:49.926Z,80.69
2022-12-29T21:25:16.472Z,79.27
2022-12-29T21:27:45.837Z,80.73
2022-12-29T21:30:12.972Z,79.75
2022-12-29T21:32:40.694Z,81.02
2022-12-29T21:35:08.796Z,80.28
2022-12-29T21:37:35.922Z,79.08
2022-12-29T21:40:02.898Z,80.85
2022-12-29T21:42:30.359Z,80.25
2022-12-29T21:45:20.502Z,79.43
2022-12-29T21:48:06.845Z,78.93
2022-12-29T21:50:33.366Z,78.97
2022-12-29T21:52:59.857Z,79.70
2022-12-29T21:55:26.474Z,79.01
2022-12-29T21:58:11.488Z,80.14
2022-12-29T22:00:56.717Z,78.33
2022-12-29T22:03:41.859Z,80.60
2022-12-29T22:06:30.099Z,79.23
2022-12-29T22:09:15.471Z,79.20
2022-12-29T22:12:00.720Z,79.97
2022-12-29T22:14:27.199Z,79.19
2022-12-29T22:16:53.797Z,78.65
2022-12-29T22:19:20.350Z,80.75
2022-12-29T22:21:46.858Z,77.90
2022-12-29T22:24:13.492Z,78.88
2022-12-29T22:26:40.032Z,78.05
2022-12-29T22:29:06.608Z,79.21
2022-12-29T22:31:34.146Z,79.73
2022-12-29T22:34:02.547Z,78.03
2022-12-29T22:36:29.557Z,78.29
2022-12-29T22:38:56.614Z,78.66
2022-12-29T22:41:23.903Z,78.41
2022-12-29T22:43:50.381Z,80.43
2022-12-29T22:46:16.912Z,77.73
2022-12-29T22:48:44.885Z,76.64
2022-12-29T22:51:11.538Z,78.10
2022-12-29T22:53:38.251Z,78.27
2022-12-29T22:56:07.124Z,79.19
2022-12-29T22:58:34.067Z,78.63
2022-12-29T23:01:01.036Z,79.56
2022-12-29T23:03:28.796Z,79.75
2022-12-29T23:06:03.823Z,78.08
2022-12-29T23:08:38.494Z,78.88
2022-12-29T23:11:08.056Z,78.42
2022-12-29T23:13:34.683Z,79.72
2022-12-29T23:16:01.495Z,79.36
2022-12-29T23:18:28.347Z,79.67
2022-12-29T23:20:54.808Z,78.65
2022-12-29T23:23:46.507Z,78.74
2022-12-29T23:26:16.468Z,78.70
2022-12-29T23:28:42.957Z,78.00
2022-12-29T23:31:09.936Z,78.51
2022-12-29T23:33:36.799Z,78.58
2022-12-29T23:36:04.519Z,78.96
2022-12-29T23:38:31.113Z,78.79
2022-12-29T23:40:57.692Z,78.16
2022-12-29T23:43:24.225Z,79.20
2022-12-29T23:45:51.332Z,78.33
2022-12-29T23:48:18.760Z,78.64
2022-12-29T23:50:45.796Z,79.63
2022-12-29T23:53:12.441Z,78.39
2022-12-29T23:55:41.682Z,77.83
2022-12-29T23:58:09.378Z,77.53
